Weather observations for the past three days for
Waskish Municipal Airport
Metric (Imperial)
Date Time (cdt) Wind (kph) Vis. (km) Weather Sky Cond. Temperature (ºC) Relative Humidity Wind Chill (°C) Heat Index (°C) Pressure Precipitation (cm)
Air Dwpt 6 hour altimeter (cm) sea level (mb) 1 hr 3 hr 6 hr
Max. Min.
03 18:32 SW 20 G 30 16.09 Mostly Cloudy BKN095 19 1 30% 74.88 0.0
03 18:06 SW 17 16.09 Mostly Cloudy BKN095 20 1 28% 74.93 0.0
03 17:31 SW 20 16.09 Partly Cloudy SCT095 21 -1 23% 75.01 0.0
03 16:49 SW 17 16.09 Fair CLR 19 -1 26% 75.08 0.0
03 15:14 SW 20 16.09 Fair CLR 18 1 32% 75.29 0.0
03 14:46 SW 22 16.09 Fair CLR 17 0 32% 75.31 0.0
03 13:54 SW 19 16.09 Fair CLR 17 -1 30% 75.39 0.0
03 13:26 SW 17 16.09 Fair CLR 16 -1 31% 75.44 0.0
03 12:35 SW 17 16.09 Fair CLR 15 -2 31% 75.51 0.0
03 11:14 SW 19 16.09 Fair CLR 13 2 47% 75.59 0.0
03 10:53 SW 19 16.09 Fair CLR 12 3 54% 75.59 0.0
03 09:32 W 11 16.09 Fair CLR 10 4 67% 9 75.62 0.0
03 09:10 W 9 16.09 Fair CLR 10 3 62% 9 0 0.0
03 07:32 NW 13 16.09 Fair CLR 7 3 76% 5 75.62 0.0
03 06:52 NW 9 16.09 Fair CLR 6 4 87% 4 75.57 0.0
03 06:16 NW 11 16.09 Fair CLR 5 4 93% 3 75.54 0.0
03 05:34 NW 11 16.09 Fair CLR 6 6 100% 4 75.54 0.0
03 05:04 NW 13 16.09 Fair CLR 6 6 100% 4 75.51 0.0
03 04:12 NW 17 16.09 Fair CLR 0 0 0% 75.51 0.0
03 03:50 NW 13 16.09 Fair CLR 0 0 0% 75.49 0.0
03 03:10 W 7 16.09 Fair CLR 0 0 0% 75.49 0.0
03 02:14 W 6 4.83 Fog/Mist CLR 0 0 0% 75.49 0.0
03 01:49 W 6 8.05 Fair with Haze CLR 0 0 0% 75.51 0.0
03 00:52 Calm 0.80 Fog BKN001 0 0 0% 75.51 0.0
03 00:14 Calm 8.05 Fair with Haze CLR 0 0 0% 75.51 0.0
02 23:34 Calm 16.09 Mostly Cloudy BKN110 0 0 0% 75.54 0.0
02 22:52 Calm 16.09 Overcast OVC095 0 0 0% 75.54 0.0
02 22:29 Calm 16.09 Overcast OVC085 9 9 100% 75.57 0.0
02 21:34 Calm 16.09 Overcast OVC075 10 10 100% 75.57 0.0
02 20:56 N 9 16.09 Overcast BKN075 OVC080 11 11 100% 75.57 0.0
02 20:29 Calm 16.09 Overcast OVC075 11 11 100% 75.54 0.0
02 19:33 Calm 16.09 Light Rain OVC075 11 11 100% 75.57 0.0
02 19:08 E 7 16.09 Light Rain OVC085 12 12 100% 75.57 0.0
02 18:32 E 7 16.09 Light Rain OVC085 12 12 100% 0 0.0
02 17:12 W 24 16.09 Rain SCT032 BKN048 OVC065 13 6 63% 75.69 0.0
02 16:45 W 19 G 30 16.09 Light Rain SCT047 SCT055 BKN065 14 4 51% 75.69 0.0
02 15:54 SW 17 16.09 Fair CLR 16 3 42% 75.64 0.0
02 15:32 SW 15 16.09 Fair CLR 17 2 37% 75.67 0.0
02 14:14 SW 17 16.09 Mostly Cloudy BKN110 17 1 34% 75.69 0.0
02 13:54 W 13 16.09 Overcast OVC110 17 1 34% 0 0.0
02 12:34 W 15 16.09 Mostly Cloudy BKN095 16 1 36% 75.79 0.0
02 11:52 S 11 16.09 NULL NULL 18 -1 28% 75.82 0.0
02 11:13 S 17 G 26 16.09 Fair CLR 17 -1 30% 75.87 0.0
02 10:47 S 9 16.09 Fair CLR 16 -2 29% 75.9 0.0
02 09:54 SW 13 16.09 Fair CLR 14 -3 31% 75.95 0.0
02 09:25 S 9 16.09 Fair CLR 13 -3 33% 76 0.0
02 08:34 S 7 16.09 Fair CLR 10 -3 40% 9 76.07 0.0
02 07:52 S 9 16.09 Fair CLR 7 -3 49% 5 76.1 0.0
02 07:12 S 7 16.09 Fair CLR 5 -3 57% 4 76.12 0.0
02 06:47 S 6 16.09 Fair CLR 3 -3 65% 76.15 0.0
02 05:12 S 6 16.09 Fair CLR 3 -1 75% 76.2 0.0
02 04:32 Calm 16.09 Fair CLR -1 -1 100% 76.23 0.0
02 03:52 Calm 16.09 Fair CLR -2 -2 100% 76.25 0.0
02 03:34 Calm 16.09 Fair CLR -2 -2 100% 76.25 0.0
02 02:12 S 6 16.09 Fair CLR -2 -2 100% 76.28 0.0
02 01:32 Calm 16.09 Fair CLR -1 -1 100% 76.3 0.0
02 01:10 Calm 16.09 Fair CLR -1 -1 100% 76.3 0.0
02 00:14 Calm 16.09 Fair CLR -1 -1 100% 76.33 0.0
01 23:34 Calm 1.61 Fair CLR 0 -1 93% 76.35 0.0
01 23:06 Calm 16.09 Fair CLR 0 -1 93% 76.35 0.0
01 21:42 Calm 16.09 Fair CLR 2 -2 75% 76.38 0.0
01 20:54 Calm 16.09 Fair CLR 6 -6 42% 76.38 0.0
01 20:28 Calm 16.09 Fair CLR 9 -6 34% 76.38 0.0
01 19:43 NE 9 16.09 Fair CLR 11 -6 30% 76.35 0.0
01 19:08 Calm 16.09 Fair CLR 11 -7 28% 76.35 0.0
01 17:47 W 9 16.09 Fair CLR 12 -6 28% 76.38 0.0
01 16:52 SW 7 16.09 Fair CLR 12 -7 26% 76.38 0.0
01 16:13 W 9 16.09 Fair CLR 12 -6 28% 76.4 0.0
01 15:32 W 13 16.09 Fair CLR 12 -6 28% 76.4 0.0
01 14:52 W 9 16.09 Fair CLR 11 -7 28% 76.43 0.0
01 14:14 SW 13 16.09 Fair CLR 11 -7 28% 76.43 0.0
01 13:47 SW 11 16.09 Fair CLR 11 -7 28% 76.43 0.0
01 12:56 SW 15 16.09 Fair CLR 10 -6 32% 8 76.45 0.0
01 12:14 W 15 16.09 Fair CLR 9 -7 32% 7 76.48 0.0
01 11:36 W 11 16.09 Fair CLR 0 0 0% 76.48 0.0
01 10:52 SW 11 16.09 Fair CLR 8 -2 50% 6 76.5 0.0
01 10:29 W 13 16.09 Fair CLR 7 -2 53% 5 76.5 0.0
01 09:36 Calm 16.09 Fair CLR 5 -2 61% 76.5 0.0
01 08:52 W 7 16.09 Fair CLR 4 0 75% 2 76.5 0.0
01 08:12 Calm 16.09 Fair CLR 2 -1 81% 76.48 0.0
01 07:48 Calm 16.09 Fair CLR 2 0 87% 76.48 0.0
01 06:29 Calm 16.09 Fair CLR -4 -4 100% 76.43 0.0
01 04:52 Calm 16.09 Fair CLR -1 -3 86% 76.4 0.0
01 04:29 Calm 16.09 Fair CLR -1 -3 86% 76.4 0.0
01 03:36 N 6 16.09 Fair CLR 1 -3 75% 76.38 0.0
01 03:06 Calm 16.09 Fair CLR 1 -2 81% 76.38 0.0
01 02:12 Calm 16.09 Fair CLR -3 -3 100% 76.38 0.0
01 01:49 Calm 16.09 Fair CLR -2 -2 100% 76.38 0.0
01 01:09 Calm 16.09 Fair CLR -2 -2 100% 76.38 0.0
01 00:14 Calm 16.09 Fair CLR -2 -2 100% 76.38 0.0
30 23:46 Calm 16.09 Fair CLR -2 -2 100% 76.35 0.0
30 22:52 Calm 16.09 Fair CLR -1 -2 93% 76.38 0.0
30 22:14 Calm 16.09 Fair CLR 1 -4 70% 76.38 0.0
30 21:32 NW 7 16.09 Fair CLR 4 -4 56% 2 76.38 0.0
30 21:04 Calm 16.09 Fair CLR 5 -3 57% 76.35 0.0
30 20:14 N 6 16.09 Fair CLR 6 -5 46% 76.35 0.0
Date Time (cdt) Wind (kph) Vis. (km) Weather Sky Cond. Air Dwpt Max. Min. Relative Humidity Wind Chill (°C) Heat Index (°C) altimeter (cm) sea level (mb) 1 hr 3 hr 6 hr
6 hour
Temperature (ºC) Pressure Precipitation (cm)